Time;durP1;ratioP1;P1;durP2;ratioP2;P2;SDS_P1;SDS_P2;PMS_P1;PMS_P2;Temp;Humidity;BMP_temperature;BMP_pressure;BME280_temperature;BME280_humidity;BME280_pressure;Samples;Min_cycle;Max_cycle;Signal;HPM_P1;HPM_P2
2021/07/11 00:01:38;;;;;;;5.05;2.88;;;;;;;16.56;99.65;98774.41;5016708;28;20108;-74
2021/07/11 00:04:04;;;;;;;6.97;3.28;;;;;;;16.58;99.36;98769.50;5016743;28;20024;-72
2021/07/11 00:06:30;;;;;;;3.95;2.78;;;;;;;16.52;99.25;98746.72;5034639;28;20029;-72
2021/07/11 00:08:56;;;;;;;3.15;2.53;;;;;;;16.55;98.77;98739.94;5034110;28;20028;-72
2021/07/11 00:11:21;;;;;;;3.42;2.47;;;;;;;16.77;98.80;98765.53;5034796;28;20033;-72
2021/07/11 00:13:46;;;;;;;4.63;2.70;;;;;;;16.73;98.41;98755.31;5034408;28;20151;-72
2021/07/11 00:16:12;;;;;;;4.75;2.92;;;;;;;16.70;98.27;98750.34;5016632;28;20112;-72
2021/07/11 00:18:37;;;;;;;3.80;2.45;;;;;;;16.68;98.24;98761.50;5048874;28;20080;-72
2021/07/11 00:21:02;;;;;;;4.88;3.00;;;;;;;16.58;98.26;98737.56;5057761;28;20048;-73
2021/07/11 00:23:28;;;;;;;6.93;2.80;;;;;;;16.67;98.67;98754.38;5044441;28;20021;-73
2021/07/11 00:25:53;;;;;;;7.35;3.08;;;;;;;16.63;99.02;98754.03;5043495;28;20076;-73
2021/07/11 00:28:18;;;;;;;6.45;2.95;;;;;;;16.53;99.60;98734.75;5012657;28;20021;-73
2021/07/11 00:30:44;;;;;;;4.60;2.70;;;;;;;16.40;98.29;98713.16;5034639;28;20033;-73
2021/07/11 00:33:10;;;;;;;4.50;2.83;;;;;;;16.63;98.53;98745.00;5033449;28;20034;-74
2021/07/11 00:35:35;;;;;;;4.28;2.85;;;;;;;16.51;98.59;98719.66;5035057;28;20391;-74
2021/07/11 00:38:01;;;;;;;4.03;2.58;;;;;;;16.61;98.82;98737.09;5020212;28;20056;-75
2021/07/11 00:40:26;;;;;;;3.38;2.47;;;;;;;16.53;98.67;98723.81;5015941;28;20097;-73
2021/07/11 00:42:51;;;;;;;3.25;2.45;;;;;;;16.67;98.08;98743.47;5015974;28;20045;-74
2021/07/11 00:45:16;;;;;;;3.90;2.35;;;;;;;16.38;97.59;98713.41;5015392;28;20030;-75
2021/07/11 00:47:43;;;;;;;3.78;2.70;;;;;;;16.50;97.98;98720.72;5033738;28;20033;-75
2021/07/11 00:50:12;;;;;;;4.80;2.80;;;;;;;16.47;98.59;98716.59;5033870;28;20025;-75
2021/07/11 00:52:39;;;;;;;4.75;2.60;;;;;;;16.47;98.48;98737.59;5029815;28;20083;-75
2021/07/11 00:55:05;;;;;;;5.55;2.88;;;;;;;16.36;98.85;98703.81;5034963;28;20029;-75
2021/07/11 00:57:31;;;;;;;5.00;2.47;;;;;;;16.61;98.56;98741.69;5034074;28;20033;-75
2021/07/11 00:59:56;;;;;;;3.28;2.40;;;;;;;16.47;98.78;98732.13;5033503;28;20044;-73
2021/07/11 01:02:50;;;;;;;4.05;2.63;;;;;;;16.49;98.81;98752.69;5015161;28;20036;-74
2021/07/11 01:05:16;;;;;;;4.95;2.97;;;;;;;16.46;99.64;98746.88;5022039;28;20026;-74
2021/07/11 01:07:42;;;;;;;4.22;2.53;;;;;;;16.42;99.29;98755.53;5033447;28;20029;-74
2021/07/11 01:10:13;;;;;;;2.97;2.45;;;;;;;16.49;99.84;98757.31;5032891;28;20071;-74
2021/07/11 01:12:44;;;;;;;7.70;3.00;;;;;;;16.41;99.56;98750.34;5033215;28;20021;-74
2021/07/11 01:15:10;;;;;;;5.03;3.33;;;;;;;16.46;99.76;98758.63;5031774;28;20065;-74
2021/07/11 01:17:37;;;;;;;5.13;3.63;;;;;;;16.50;100.00;98764.41;5014532;28;20025;-74
2021/07/11 01:20:33;;;;;;;7.22;4.00;;;;;;;16.55;100.00;98762.63;5013085;28;20068;-74
2021/07/11 01:22:59;;;;;;;9.00;3.40;;;;;;;16.50;100.00;98757.06;5032771;28;20411;-74
2021/07/11 01:25:44;;;;;;;9.35;3.75;;;;;;;16.55;100.00;98765.34;5032924;28;20480;-74
2021/07/11 01:28:12;;;;;;;7.97;3.90;;;;;;;16.54;100.00;98760.97;5025948;28;20033;-74
2021/07/11 01:30:40;;;;;;;6.57;3.67;;;;;;;16.50;100.00;98753.50;5029758;28;20028;-74
2021/07/11 01:33:07;;;;;;;5.57;3.47;;;;;;;16.47;100.00;98749.34;5014770;28;20028;-74
2021/07/11 01:35:33;;;;;;;6.38;3.45;;;;;;;16.40;99.99;98740.47;5015203;28;20032;-74
2021/07/11 01:37:59;;;;;;;7.80;3.20;;;;;;;16.31;100.00;98740.03;5032462;28;20036;-74
2021/07/11 01:40:27;;;;;;;3.70;3.13;;;;;;;16.35;99.70;98752.13;5032309;28;20033;-74
2021/07/11 01:42:54;;;;;;;7.00;3.90;;;;;;;16.34;100.00;98755.09;5014369;28;20032;-74
2021/07/11 01:45:19;;;;;;;9.57;3.17;;;;;;;16.46;100.00;98779.66;5032350;28;20033;-74
2021/07/11 01:47:45;;;;;;;7.03;3.08;;;;;;;16.38;99.12;98773.50;5032666;28;20502;-74
2021/07/11 01:50:12;;;;;;;4.03;2.67;;;;;;;16.34;99.10;98772.31;5032473;28;20032;-74
2021/07/11 01:52:38;;;;;;;3.42;2.55;;;;;;;16.22;97.86;98752.41;5032452;28;20057;-74
2021/07/11 01:55:07;;;;;;;3.03;2.00;;;;;;;16.40;96.54;98768.63;5032119;28;20068;-74
2021/07/11 01:57:33;;;;;;;4.13;2.17;;;;;;;16.31;94.59;98772.78;5027732;28;20088;-74
2021/07/11 01:59:58;;;;;;;3.92;1.80;;;;;;;16.29;94.56;98774.91;5012881;28;20041;-73
2021/07/11 02:02:23;;;;;;;2.97;2.00;;;;;;;16.21;95.48;98754.28;5016545;28;20045;-74
2021/07/11 02:04:48;;;;;;;3.10;2.05;;;;;;;16.26;94.97;98764.50;5014348;28;20032;-74
2021/07/11 02:07:14;;;;;;;5.50;2.03;;;;;;;16.26;94.30;98771.84;5031966;28;20026;-73
2021/07/11 02:09:39;;;;;;;2.83;1.88;;;;;;;16.08;94.38;98751.81;5032330;28;20528;-74
2021/07/11 02:12:06;;;;;;;2.78;1.80;;;;;;;16.27;94.57;98770.78;5032180;28;20037;-74
2021/07/11 02:14:35;;;;;;;3.17;1.80;;;;;;;16.19;94.42;98763.78;5030914;28;20021;-74
2021/07/11 02:17:08;;;;;;;5.13;1.85;;;;;;;16.14;94.59;98766.44;5032383;28;20033;-74
2021/07/11 02:19:35;;;;;;;2.78;1.98;;;;;;;16.14;94.82;98763.72;5012732;28;20471;-73
2021/07/11 02:22:01;;;;;;;3.13;2.15;;;;;;;16.26;95.05;98780.88;5032184;28;20033;-74
2021/07/11 02:24:27;;;;;;;3.47;1.83;;;;;;;16.26;95.46;98782.78;5030942;28;20060;-74
2021/07/11 02:26:54;;;;;;;4.45;1.85;;;;;;;16.24;95.28;98776.72;5032151;28;20053;-74
2021/07/11 02:29:19;;;;;;;3.90;2.00;;;;;;;16.11;96.25;98750.53;5031741;28;20026;-74
2021/07/11 02:31:46;;;;;;;3.10;1.90;;;;;;;16.10;95.61;98755.16;5031386;28;20037;-74
2021/07/11 02:34:13;;;;;;;9.05;1.92;;;;;;;16.16;95.99;98775.19;5031305;28;20026;-74
2021/07/11 02:36:51;;;;;;;5.78;2.10;;;;;;;16.09;95.98;98769.88;5032052;28;20021;-74
2021/07/11 02:39:19;;;;;;;3.92;2.03;;;;;;;16.17;96.28;98783.16;5014734;28;20083;-74
2021/07/11 02:41:54;;;;;;;3.65;2.03;;;;;;;15.99;95.42;98753.28;5034866;28;20033;-74
2021/07/11 02:44:20;;;;;;;3.83;1.90;;;;;;;16.12;94.20;98777.59;5033457;28;20025;-74
2021/07/11 02:46:51;;;;;;;4.88;2.00;;;;;;;16.16;94.31;98777.91;5032119;28;20033;-74
2021/07/11 02:49:21;;;;;;;9.05;2.33;;;;;;;16.12;94.96;98784.94;5016183;28;20399;-74
2021/07/11 02:51:52;;;;;;;4.38;1.90;;;;;;;16.08;95.84;98783.75;5034602;28;20029;-74
2021/07/11 02:54:22;;;;;;;5.95;2.30;;;;;;;15.99;96.54;98788.75;5034717;28;20112;-74
2021/07/11 02:56:50;;;;;;;4.43;2.28;;;;;;;15.85;96.79;98771.81;5035999;28;20498;-74
2021/07/11 02:59:16;;;;;;;3.65;2.38;;;;;;;15.82;96.71;98763.25;5035474;28;20021;-74
2021/07/11 03:01:42;;;;;;;3.38;2.30;;;;;;;15.93;96.04;98776.91;5035291;28;20034;-74
2021/07/11 03:04:11;;;;;;;5.85;2.40;;;;;;;15.98;95.53;98779.75;5051555;28;20102;-74
2021/07/11 03:06:37;;;;;;;3.10;2.15;;;;;;;16.03;95.25;98780.91;5041502;28;20108;-74
2021/07/11 03:09:05;;;;;;;3.42;2.30;;;;;;;16.07;95.39;98788.38;5034986;28;20055;-74
2021/07/11 03:11:35;;;;;;;5.60;2.05;;;;;;;16.07;96.02;98784.84;5036076;28;20029;-75
2021/07/11 03:14:01;;;;;;;4.20;2.05;;;;;;;16.06;95.55;98788.63;5018291;28;20484;-75
2021/07/11 03:16:27;;;;;;;4.05;2.00;;;;;;;16.03;94.11;98770.81;5016524;28;20044;-75
2021/07/11 03:18:56;;;;;;;3.55;2.20;;;;;;;15.80;94.78;98740.84;5028838;28;20033;-75
2021/07/11 03:21:23;;;;;;;3.30;2.05;;;;;;;15.95;94.44;98785.66;5017902;28;20032;-74
2021/07/11 03:23:50;;;;;;;4.70;1.90;;;;;;;15.94;96.05;98784.00;5025839;28;20025;-73
2021/07/11 03:26:17;;;;;;;4.35;2.20;;;;;;;16.02;95.98;98787.44;5018794;28;20055;-75
2021/07/11 03:28:45;;;;;;;4.85;1.95;;;;;;;15.91;96.27;98779.03;5019554;28;20026;-73
2021/07/11 03:31:11;;;;;;;2.85;2.15;;;;;;;15.97;95.65;98790.88;5018735;28;20427;-73
2021/07/11 03:33:42;;;;;;;6.05;2.28;;;;;;;16.00;94.84;98791.22;5034681;28;20034;-75
2021/07/11 03:36:10;;;;;;;6.53;2.25;;;;;;;15.90;94.02;98782.84;5014064;28;20530;-74
2021/07/11 03:38:39;;;;;;;4.40;1.80;;;;;;;15.69;94.37;98747.97;5009659;28;20048;-75
2021/07/11 03:41:06;;;;;;;;;;;;;;;15.95;94.57;98796.56;5017786;28;20029;-75
2021/07/11 03:43:33;;;;;;;5.68;2.50;;;;;;;15.99;94.25;98795.03;5012803;28;20000;-73
2021/07/11 03:46:01;;;;;;;3.90;1.70;;;;;;;15.82;94.29;98780.44;5015626;28;20379;-74
2021/07/11 03:48:31;;;;;;;3.17;2.03;;;;;;;15.92;94.53;98793.50;5017542;28;20030;-74
2021/07/11 03:51:00;;;;;;;3.22;2.00;;;;;;;15.75;95.25;98783.31;4999041;28;20026;-74
2021/07/11 03:53:31;;;;;;;4.70;2.05;;;;;;;15.57;95.18;98746.03;5028256;28;20474;-73
2021/07/11 03:55:58;;;;;;;3.97;1.92;;;;;;;15.71;94.61;98776.66;5019759;28;20068;-74
2021/07/11 03:58:28;;;;;;;4.10;2.13;;;;;;;15.88;94.23;98786.88;5018764;28;20057;-74
2021/07/11 04:00:55;;;;;;;3.75;2.00;;;;;;;15.82;94.71;98790.53;5018075;28;20158;-74
2021/07/11 04:03:24;;;;;;;5.15;2.50;;;;;;;15.88;95.13;98784.16;5034235;28;20387;-73
2021/07/11 04:05:50;;;;;;;4.57;1.90;;;;;;;15.95;93.59;98793.84;5013010;28;20022;-71
2021/07/11 04:08:19;;;;;;;4.75;2.20;;;;;;;15.97;93.27;98799.91;5015222;28;20037;-74
2021/07/11 04:10:45;;;;;;;3.45;1.95;;;;;;;15.96;93.94;98800.16;5016556;28;20033;-73
2021/07/11 04:13:13;;;;;;;6.65;1.85;;;;;;;15.92;94.39;98788.03;5034941;28;20545;-74
2021/07/11 04:15:39;;;;;;;2.95;2.00;;;;;;;16.00;94.58;98810.34;5019608;28;20049;-73
2021/07/11 04:18:08;;;;;;;5.25;1.85;;;;;;;15.85;94.63;98785.47;5016861;28;20053;-73
2021/07/11 04:20:35;;;;;;;3.85;2.15;;;;;;;16.01;95.11;98800.28;5034372;28;20033;-74
2021/07/11 04:23:01;;;;;;;4.38;2.10;;;;;;;16.03;95.02;98813.66;5034835;28;20032;-72
2021/07/11 04:25:35;;;;;;;4.47;2.13;;;;;;;15.76;96.11;98781.41;5053456;28;20017;-73
2021/07/11 04:28:02;;;;;;;6.00;2.08;;;;;;;16.00;95.60;98812.22;5041501;28;20452;-74
2021/07/11 04:30:29;;;;;;;8.63;2.20;;;;;;;16.08;94.79;98814.59;5017348;28;20108;-73
2021/07/11 04:32:55;;;;;;;5.45;2.00;;;;;;;16.01;94.31;98797.53;5018533;28;20029;-74
2021/07/11 04:35:20;;;;;;;2.83;1.85;;;;;;;15.90;94.75;98798.34;5018251;28;20710;-74
2021/07/11 04:37:45;;;;;;;4.82;2.10;;;;;;;15.85;94.66;98788.19;5013820;28;20069;-74
2021/07/11 04:40:12;;;;;;;5.75;2.05;;;;;;;15.87;95.07;98799.66;5022139;28;20035;-74
2021/07/11 04:42:37;;;;;;;3.67;2.17;;;;;;;16.12;94.41;98828.63;5027044;28;20033;-73
2021/07/11 04:45:03;;;;;;;6.93;2.40;;;;;;;15.95;95.17;98801.19;5028579;28;20037;-73
2021/07/11 04:47:29;;;;;;;4.72;2.20;;;;;;;16.08;94.92;98821.97;5034567;28;20060;-73
2021/07/11 04:49:54;;;;;;;9.43;2.30;;;;;;;16.03;94.35;98809.03;5016026;28;20049;-74
2021/07/11 04:52:20;;;;;;;4.25;2.00;;;;;;;16.08;93.98;98817.31;5034180;28;20151;-73
2021/07/11 04:54:45;;;;;;;7.07;2.10;;;;;;;16.05;93.62;98806.91;5028776;28;20029;-72
2021/07/11 04:57:10;;;;;;;6.57;2.05;;;;;;;16.15;93.56;98820.78;5015929;28;20028;-74
2021/07/11 04:59:36;;;;;;;2.30;1.73;;;;;;;16.11;93.06;98803.22;5016342;28;20052;-74
2021/07/11 05:02:01;;;;;;;4.35;1.98;;;;;;;16.31;92.28;98832.03;5032988;28;20101;-73
2021/07/11 05:04:27;;;;;;;6.45;2.38;;;;;;;16.24;91.96;98818.50;5015222;28;20499;-73
2021/07/11 05:06:52;;;;;;;9.48;1.77;;;;;;;16.38;91.36;98825.38;5013536;28;20406;-74
2021/07/11 05:09:17;;;;;;;10.05;2.22;;;;;;;16.40;91.26;98842.34;5015635;28;20053;-73
2021/07/11 05:11:43;;;;;;;2.38;1.83;;;;;;;16.41;89.78;98824.88;5032644;28;20108;-73
2021/07/11 05:14:08;;;;;;;2.75;2.17;;;;;;;16.31;91.20;98843.78;5032753;28;20029;-73
2021/07/11 05:16:33;;;;;;;3.80;1.80;;;;;;;16.35;90.67;98839.50;5032868;28;20040;-73
2021/07/11 05:18:59;;;;;;;4.22;1.60;;;;;;;16.43;90.16;98830.94;5015324;28;20079;-73
2021/07/11 05:21:24;;;;;;;6.55;1.67;;;;;;;16.44;89.67;98818.13;5014815;28;20017;-73
2021/07/11 05:23:50;;;;;;;4.82;1.95;;;;;;;16.60;87.89;98846.56;5017110;28;20472;-74
2021/07/11 05:26:15;;;;;;;4.28;1.77;;;;;;;16.61;88.68;98848.22;5031443;28;20048;-73
2021/07/11 05:28:41;;;;;;;5.13;1.90;;;;;;;16.38;88.24;98811.72;5032678;28;20108;-73
2021/07/11 05:31:08;;;;;;;3.35;1.90;;;;;;;16.76;87.60;98839.50;5032566;28;20406;-73
2021/07/11 05:33:33;;;;;;;3.13;1.90;;;;;;;16.77;87.76;98836.59;5032641;28;20487;-73
2021/07/11 05:35:59;;;;;;;5.25;2.00;;;;;;;16.78;86.37;98816.38;5020407;28;20055;-73
2021/07/11 05:38:26;;;;;;;5.53;2.00;;;;;;;16.71;87.72;98834.78;5029490;28;20079;-73
2021/07/11 05:40:51;;;;;;;7.70;1.75;;;;;;;16.81;87.50;98836.91;5014648;28;20069;-73
2021/07/11 05:43:17;;;;;;;3.85;1.80;;;;;;;16.71;87.27;98829.31;5014623;28;20052;-74
2021/07/11 05:45:42;;;;;;;3.35;2.00;;;;;;;16.74;86.83;98817.06;5023063;28;20033;-74
2021/07/11 05:48:09;;;;;;;5.22;1.92;;;;;;;16.93;86.07;98836.88;5041450;28;20535;-73
2021/07/11 05:50:34;;;;;;;6.70;1.85;;;;;;;17.05;85.98;98827.53;5014284;28;20112;-73
2021/07/11 05:52:59;;;;;;;3.05;1.83;;;;;;;16.83;85.73;98835.59;5032008;28;20061;-73
2021/07/11 05:55:24;;;;;;;5.55;2.90;;;;;;;17.02;85.58;98827.22;5032322;28;20044;-73
2021/07/11 05:57:50;;;;;;;2.58;1.73;;;;;;;17.06;85.29;98825.66;5030453;28;20029;-78
2021/07/11 06:00:16;;;;;;;7.47;1.80;;;;;;;17.17;84.32;98827.50;5034252;28;20036;-77
2021/07/11 06:02:42;;;;;;;4.28;2.05;;;;;;;17.13;84.07;98828.22;5012301;28;20047;-73
2021/07/11 06:05:07;;;;;;;4.35;1.88;;;;;;;17.18;84.53;98831.88;5010166;28;20487;-75
2021/07/11 06:07:33;;;;;;;4.28;2.00;;;;;;;17.05;85.08;98824.81;5013040;28;20026;-74
2021/07/11 06:09:59;;;;;;;6.78;2.08;;;;;;;17.08;84.24;98832.53;5014268;28;20034;-75
2021/07/11 06:12:25;;;;;;;5.20;2.00;;;;;;;17.14;84.08;98830.72;5032686;28;20029;-72
2021/07/11 06:14:50;;;;;;;7.78;2.03;;;;;;;16.82;84.16;98819.44;5029494;28;20033;-77
2021/07/11 06:17:16;;;;;;;3.53;1.90;;;;;;;17.03;84.29;98851.56;5030886;28;20095;-72
2021/07/11 06:19:42;;;;;;;3.47;2.08;;;;;;;16.65;85.62;98849.41;5031804;28;20104;-72
2021/07/11 06:22:07;;;;;;;3.65;1.85;;;;;;;16.47;86.42;98838.66;5014251;28;20471;-70
2021/07/11 06:24:32;;;;;;;2.92;2.08;;;;;;;16.58;86.39;98854.16;5029147;28;20380;-71
2021/07/11 06:26:58;;;;;;;5.85;2.60;;;;;;;16.33;86.68;98849.84;5025706;28;20021;-73
2021/07/11 06:29:23;;;;;;;2.75;2.00;;;;;;;16.66;86.42;98851.06;5031723;28;20026;-72
2021/07/11 06:31:49;;;;;;;5.57;2.00;;;;;;;16.82;84.93;98839.41;5022638;28;20060;-71
2021/07/11 06:34:14;;;;;;;3.63;2.20;;;;;;;17.04;83.97;98866.88;5029270;28;20033;-69
2021/07/11 06:36:39;;;;;;;5.82;1.83;;;;;;;17.53;81.84;98874.63;5028302;28;20036;-75
2021/07/11 06:39:06;;;;;;;5.95;2.10;;;;;;;17.46;81.78;98871.22;5033028;28;20030;-77
2021/07/11 06:41:31;;;;;;;2.95;1.70;;;;;;;17.90;79.76;98847.63;5029906;28;20025;-75
2021/07/11 06:43:57;;;;;;;3.25;1.80;;;;;;;18.19;78.13;98869.41;5030843;28;20083;-70
2021/07/11 06:46:22;;;;;;;4.15;2.10;;;;;;;18.13;78.74;98865.78;5031763;28;20040;-70
2021/07/11 06:48:48;;;;;;;2.60;1.80;;;;;;;18.12;77.32;98850.41;5031735;28;20025;-71
2021/07/11 06:51:13;;;;;;;3.08;1.80;;;;;;;18.46;76.20;98855.81;5031176;28;20037;-68
2021/07/11 06:53:39;;;;;;;1.92;1.48;;;;;;;17.93;77.42;98822.50;5029353;28;20037;-72
2021/07/11 06:56:05;;;;;;;2.42;1.60;;;;;;;19.04;75.38;98859.84;5016788;28;20029;-73
2021/07/11 06:58:30;;;;;;;2.72;1.80;;;;;;;19.68;73.00;98861.06;5012619;28;20112;-73
2021/07/11 07:00:56;;;;;;;4.93;2.03;;;;;;;20.29;70.01;98847.78;5023302;28;20640;-78
2021/07/11 07:03:21;;;;;;;6.70;1.73;;;;;;;21.29;68.48;98855.06;5014372;28;20031;-78
2021/07/11 07:05:47;;;;;;;2.85;1.50;;;;;;;22.05;64.65;98848.78;5003075;28;20109;-70
2021/07/11 07:08:12;;;;;;;3.22;1.50;;;;;;;21.27;64.32;98842.66;5023737;28;20404;-74
2021/07/11 07:10:38;;;;;;;4.22;1.55;;;;;;;20.26;67.79;98858.47;5019399;28;20427;-72
2021/07/11 07:13:03;;;;;;;5.20;1.67;;;;;;;20.16;69.17;98845.50;5004405;28;20041;-72
2021/07/11 07:15:29;;;;;;;3.90;1.52;;;;;;;19.47;70.75;98832.59;5019347;28;20026;-73
2021/07/11 07:17:54;;;;;;;2.88;1.80;;;;;;;19.84;68.70;98818.91;5021218;28;20022;-77
2021/07/11 07:20:19;;;;;;;7.57;1.70;;;;;;;19.89;68.43;98853.81;5005979;28;20025;-73
2021/07/11 07:22:45;;;;;;;3.00;1.60;;;;;;;19.69;69.58;98849.00;5021974;28;20032;-73
2021/07/11 07:25:13;;;;;;;2.45;1.60;;;;;;;19.88;68.47;98844.75;4994576;28;20111;-74
2021/07/11 07:27:39;;;;;;;2.35;1.27;;;;;;;20.85;66.17;98846.41;5015460;28;20483;-76
2021/07/11 07:30:06;;;;;;;2.50;1.52;;;;;;;21.38;63.71;98827.88;5021683;28;20029;-77
2021/07/11 07:32:31;;;;;;;3.28;1.38;;;;;;;21.41;63.14;98861.19;5006112;28;20024;-74
2021/07/11 07:34:56;;;;;;;3.60;1.58;;;;;;;21.73;63.39;98849.09;5034016;28;20029;-73
2021/07/11 07:37:22;;;;;;;3.88;1.30;;;;;;;21.47;63.42;98852.94;5024347;28;20026;-72
2021/07/11 07:39:47;;;;;;;4.15;1.80;;;;;;;22.19;61.10;98846.34;5005399;28;20025;-75
2021/07/11 07:42:13;;;;;;;6.53;1.50;;;;;;;22.61;59.00;98844.28;5016127;28;20069;-75
2021/07/11 07:44:38;;;;;;;7.85;1.60;;;;;;;22.17;61.16;98858.72;5034588;28;20067;-73
2021/07/11 07:47:04;;;;;;;2.63;1.42;;;;;;;22.24;60.71;98864.78;5034580;28;20114;-74
2021/07/11 07:49:29;;;;;;;4.20;1.50;;;;;;;21.65;61.52;98868.91;5035631;28;20400;-74
2021/07/11 07:51:54;;;;;;;2.50;1.65;;;;;;;22.08;60.79;98867.50;5028754;28;20017;-73
2021/07/11 07:54:20;;;;;;;2.05;1.30;;;;;;;21.86;60.55;98854.03;5034570;28;20029;-75
2021/07/11 07:56:45;;;;;;;1.60;1.20;;;;;;;22.02;60.07;98849.34;5033489;28;20534;-75
2021/07/11 07:59:10;;;;;;;2.47;1.42;;;;;;;21.46;62.59;98865.88;5039300;28;20032;-75
2021/07/11 08:01:38;;;;;;;2.78;1.40;;;;;;;21.13;64.89;98854.19;5019315;28;20028;-74
2021/07/11 08:04:04;;;;;;;5.53;1.80;;;;;;;20.96;66.70;98848.94;5031826;28;20026;-74
2021/07/11 08:06:33;;;;;;;1.90;1.23;;;;;;;20.96;66.96;98870.94;5021088;28;20079;-70
2021/07/11 08:08:59;;;;;;;2.63;1.27;;;;;;;21.09;65.89;98874.25;5028173;28;20026;-74
2021/07/11 08:11:25;;;;;;;2.80;1.30;;;;;;;20.89;66.16;98850.28;5029585;28;20042;-74
2021/07/11 08:13:50;;;;;;;2.30;1.27;;;;;;;20.72;65.66;98870.56;5034147;28;20044;-73
2021/07/11 08:16:15;;;;;;;2.58;1.50;;;;;;;20.18;65.27;98848.00;5015407;28;20044;-73
2021/07/11 08:18:41;;;;;;;3.85;1.50;;;;;;;20.73;66.52;98868.66;5024136;28;20107;-75
2021/07/11 08:21:06;;;;;;;4.40;1.50;;;;;;;20.66;68.11;98876.31;5003786;28;20017;-74
2021/07/11 08:23:32;;;;;;;5.68;1.55;;;;;;;21.13;66.55;98875.38;5030183;28;20026;-74
2021/07/11 08:25:58;;;;;;;2.50;1.30;;;;;;;21.23;64.87;98856.97;5033886;28;20117;-76
2021/07/11 08:28:23;;;;;;;6.05;1.40;;;;;;;21.09;65.75;98866.88;5014461;28;20034;-75
2021/07/11 08:30:48;;;;;;;5.97;1.70;;;;;;;20.70;65.51;98870.00;5008313;28;20017;-75
2021/07/11 08:33:14;;;;;;;3.10;1.52;;;;;;;21.50;64.07;98864.22;5015088;28;20038;-75
2021/07/11 08:35:39;;;;;;;4.20;1.52;;;;;;;24.67;56.60;98853.56;5030510;28;20040;-74
2021/07/11 08:38:05;;;;;;;1.77;1.00;;;;;;;28.48;45.79;98861.53;5020887;28;20025;-73
2021/07/11 08:40:35;;;;;;;2.60;1.02;;;;;;;31.59;37.50;98870.97;5028221;28;20030;-73
2021/07/11 08:43:04;;;;;;;3.55;1.13;;;;;;;33.00;35.53;98852.34;5009883;28;20029;-73
2021/07/11 08:45:30;;;;;;;2.13;0.82;;;;;;;32.79;35.92;98858.09;5032340;28;20029;-72
2021/07/11 08:47:55;;;;;;;1.92;1.02;;;;;;;30.43;38.72;98856.31;5024897;28;20104;-75
2021/07/11 08:50:20;;;;;;;2.70;0.80;;;;;;;27.73;43.75;98865.91;5033472;28;20105;-76
2021/07/11 08:52:47;;;;;;;1.17;0.80;;;;;;;26.57;46.39;98865.38;5030684;28;20116;-74
2021/07/11 08:55:20;;;;;;;1.88;0.90;;;;;;;25.55;50.00;98874.28;5033365;28;20052;-74
2021/07/11 08:58:13;;;;;;;2.17;1.17;;;;;;;24.40;52.92;98868.75;5034066;28;20034;-77
2021/07/11 09:00:38;;;;;;;5.30;3.13;;;;;;;25.81;51.87;98871.09;5018375;28;20037;-71
2021/07/11 09:03:07;;;;;;;12.32;5.90;;;;;;;28.63;44.70;98868.63;5013480;28;20028;-72
2021/07/11 09:05:39;;;;;;;8.30;4.55;;;;;;;29.23;40.77;98858.81;5031636;28;20025;-69
2021/07/11 09:08:08;;;;;;;3.00;1.70;;;;;;;28.00;42.60;98870.53;5031622;28;20155;-74
2021/07/11 09:10:42;;;;;;;1.95;1.20;;;;;;;27.56;45.56;98854.66;5023466;28;20026;-78
2021/07/11 09:13:13;;;;;;;3.15;0.98;;;;;;;25.98;49.22;98871.38;5020245;28;20018;-73
2021/07/11 09:15:41;;;;;;;1.83;1.13;;;;;;;25.30;49.34;98861.59;5031607;28;20029;-73
2021/07/11 09:18:06;;;;;;;4.80;1.00;;;;;;;25.13;50.95;98872.34;5026048;28;20022;-72
2021/07/11 09:20:47;;;;;;;1.55;0.93;;;;;;;24.65;51.54;98873.22;5027897;28;20667;-73
2021/07/11 09:23:13;;;;;;;1.88;0.98;;;;;;;24.38;51.61;98878.47;5021181;28;20113;-70
2021/07/11 09:25:38;;;;;;;1.48;0.90;;;;;;;23.93;51.92;98862.03;5029520;28;20057;-70
2021/07/11 09:28:10;;;;;;;1.55;1.15;;;;;;;23.60;52.83;98858.09;5031693;28;20111;-70
2021/07/11 09:30:36;;;;;;;3.70;0.90;;;;;;;23.81;52.44;98892.78;5024038;28;20854;-70
2021/07/11 09:33:01;;;;;;;1.85;1.05;;;;;;;23.92;52.02;98876.13;5010137;28;20029;-70
2021/07/11 09:35:26;;;;;;;1.85;0.80;;;;;;;24.02;52.14;98876.03;5029388;28;20119;-70
2021/07/11 09:37:55;;;;;;;1.00;0.70;;;;;;;23.81;51.11;98876.19;5026212;28;20163;-70
2021/07/11 09:40:23;;;;;;;2.10;0.90;;;;;;;23.44;52.80;98890.53;5027367;28;20364;-70
2021/07/11 09:42:50;;;;;;;3.25;1.10;;;;;;;22.88;56.39;98877.81;5029045;28;20033;-70
2021/07/11 09:45:21;;;;;;;1.77;1.00;;;;;;;22.65;58.17;98897.78;5028893;28;20112;-70
2021/07/11 09:47:50;;;;;;;1.45;1.05;;;;;;;22.58;58.76;98886.19;5029000;28;20025;-70
2021/07/11 09:50:21;;;;;;;5.75;1.30;;;;;;;22.58;56.86;98895.28;5012308;28;20358;-70
2021/07/11 09:52:54;;;;;;;1.35;0.93;;;;;;;22.53;56.63;98887.88;5011452;28;20036;-71
2021/07/11 09:55:21;;;;;;;1.73;1.10;;;;;;;22.75;57.06;98889.47;5022539;28;20048;-70
2021/07/11 09:57:58;;;;;;;3.15;1.50;;;;;;;23.11;55.45;98890.19;5010167;28;20030;-70
2021/07/11 10:00:26;;;;;;;2.63;1.80;;;;;;;23.15;56.04;98887.66;5015075;28;20037;-69
2021/07/11 10:02:57;;;;;;;3.17;2.25;;;;;;;23.30;56.06;98889.53;5029225;28;20056;-69
2021/07/11 10:05:24;;;;;;;2.83;1.73;;;;;;;23.20;56.45;98873.84;5009630;28;20496;-70
2021/07/11 10:07:50;;;;;;;4.25;1.75;;;;;;;23.33;56.00;98888.94;5021225;28;20029;-68
2021/07/11 10:10:18;;;;;;;5.10;3.00;;;;;;;23.43;56.04;98891.66;5017320;28;20694;-70
2021/07/11 10:12:45;;;;;;;4.07;1.50;;;;;;;23.49;55.08;98873.09;5014946;28;20036;-72
2021/07/11 10:15:13;;;;;;;4.45;2.03;;;;;;;23.84;55.47;98866.50;5029906;28;20525;-71
2021/07/11 10:17:44;;;;;;;4.82;1.70;;;;;;;24.25;54.58;98886.31;5029640;28;20037;-69
2021/07/11 10:20:10;;;;;;;3.85;1.70;;;;;;;24.55;54.38;98878.88;5028365;28;20399;-69
2021/07/11 10:22:47;;;;;;;2.97;1.45;;;;;;;24.86;51.72;98870.19;5013082;28;20026;-70
2021/07/11 10:25:17;;;;;;;2.10;1.42;;;;;;;25.48;51.84;98873.81;5014306;28;20033;-69
2021/07/11 10:27:43;;;;;;;4.30;1.30;;;;;;;26.01;49.49;98875.50;5022663;28;20018;-70
2021/07/11 10:30:10;;;;;;;2.78;1.60;;;;;;;26.96;48.36;98873.19;5029315;28;20068;-70
2021/07/11 10:32:35;;;;;;;8.02;3.38;;;;;;;27.29;47.45;98867.50;5029136;28;20029;-70
2021/07/11 10:35:19;;;;;;;3.50;1.27;;;;;;;27.06;46.83;98872.97;5029267;28;20077;-70
2021/07/11 10:37:55;;;;;;;1.35;1.00;;;;;;;26.82;46.55;98862.06;5018928;28;20123;-69
2021/07/11 10:40:23;;;;;;;1.80;1.10;;;;;;;27.49;45.86;98874.56;5007712;28;20033;-69
2021/07/11 10:42:50;;;;;;;2.47;1.10;;;;;;;27.55;46.27;98873.28;5028557;28;20025;-69
2021/07/11 10:45:18;;;;;;;3.03;1.15;;;;;;;27.59;45.37;98868.75;5012596;28;20589;-71
2021/07/11 10:47:43;;;;;;;1.48;1.10;;;;;;;27.83;44.77;98868.47;5010874;28;20044;-69
2021/07/11 10:50:22;;;;;;;2.83;1.20;;;;;;;27.24;45.86;98862.03;5028628;28;20033;-70
2021/07/11 10:52:48;;;;;;;2.38;1.25;;;;;;;26.64;46.89;98882.41;5029336;28;20044;-69
2021/07/11 10:55:13;;;;;;;4.88;1.00;;;;;;;25.73;49.19;98842.13;5005598;28;20132;-69
2021/07/11 10:57:39;;;;;;;2.33;1.45;;;;;;;25.78;48.38;98866.13;5018167;28;20113;-70
2021/07/11 11:00:13;;;;;;;2.13;1.40;;;;;;;25.66;47.22;98874.13;5029355;28;20024;-70
2021/07/11 11:02:39;;;;;;;2.00;1.02;;;;;;;26.15;47.10;98870.00;5032070;28;20033;-70
2021/07/11 11:05:12;;;;;;;5.18;1.20;;;;;;;27.33;45.16;98871.31;5031182;28;20690;-70
2021/07/11 11:07:43;;;;;;;1.75;0.93;;;;;;;29.30;40.92;98866.72;5032150;28;20033;-71
2021/07/11 11:10:38;;;;;;;2.55;1.20;;;;;;;30.32;38.57;98871.78;5030913;28;20176;-70
2021/07/11 11:13:25;;;;;;;2.55;0.85;;;;;;;30.49;36.65;98865.31;5009054;28;20038;-70
2021/07/11 11:15:55;;;;;;;1.83;0.95;;;;;;;31.66;35.15;98868.47;5027524;28;20085;-71
2021/07/11 11:18:38;;;;;;;2.42;1.30;;;;;;;31.47;34.72;98865.31;5029303;28;20017;-70
2021/07/11 11:21:18;;;;;;;2.50;0.93;;;;;;;31.14;35.62;98855.66;5032188;28;20037;-69
2021/07/11 11:24:09;;;;;;;3.17;0.90;;;;;;;32.59;34.42;98854.22;5031818;28;20400;-70
2021/07/11 11:26:35;;;;;;;1.00;0.70;;;;;;;34.58;30.97;98852.19;5010038;28;20037;-70
2021/07/11 11:29:02;;;;;;;1.05;0.80;;;;;;;34.04;32.79;98859.13;5022592;28;20503;-69
2021/07/11 11:31:36;;;;;;;1.48;0.88;;;;;;;33.16;31.74;98856.91;5013160;28;20034;-71
2021/07/11 11:34:06;;;;;;;5.82;0.90;;;;;;;32.02;35.41;98853.03;5014215;28;20029;-70
2021/07/11 11:36:41;;;;;;;3.42;1.00;;;;;;;31.21;36.07;98857.91;5028607;28;20033;-71